Abbott, Mississippi
Current Conditions -  °F | °C
As of 10:15 PM on Monday 22 Dec 2014 (Local Time) from KSTF Reporting Station
Broken Clouds Broken Clouds  
Wind Chill: 13°   Ceiling: 3300
Heat Index: 13°   Visibility: 7mi
Dew Point: 13°   Wind: 6mph
Humidity: 100%   Direction: 140°SE
Pressure: 29.7"   Gusts: NA
Location:  33.6681°N, 88.7618°W
Report Text: KSTF 230415Z AUTO 14005KT 7SM SCT007 SCT014 BKN033 13/13 A2970 RMK AO2 LTG DSNT NW
Loading
Personal Weather Stations






























Interactive Weather Map New forecast layout! Learn more

10-Day Weather Forecast

Advertisements
Track Severe Weather on mobile